Terminal Aerodrome Forecast
Issued by NWS

Home | Current Version | Previous Version | Text Only | Print | Product List | Glossary On
Versions: 1 2 3 4 5 6 7 8 9 10 11 12 13
000
FTAK31 PAJN 251100
TAFAKT
TAF
PAKT 251132Z 2512/2612 13008KT P6SM VCSH FEW008 SCT015 OVC035
      TEMPO 2512/2516 6SM -SHRA BR BKN008 OVC012
     FM251700 14011KT 6SM -RA BR SCT008 OVC015
     FM252000 14012G22KT 5SM -RA BR SCT012 OVC020
     FM260200 14008KT 4SM -RA BR SCT009 OVC015
     FM261000 14005KT 3SM -RA BR BKN008 OVC012
      AMD LTD TO CLD VIS AND WIND 2512/2515=

USA.gov is the U.S. government's official web portal to all federal, state and local government web resources and services.